createdAt,value
2024-03-05T00:02:13.076Z,18.13
2024-03-05T00:04:42.387Z,16.20
2024-03-05T00:07:10.352Z,17.23
2024-03-05T00:09:38.464Z,17.67
2024-03-05T00:12:06.445Z,16.30
2024-03-05T00:14:34.703Z,18.50
2024-03-05T00:17:04.510Z,16.90
2024-03-05T00:19:33.410Z,16.25
2024-03-05T00:22:03.373Z,15.55
2024-03-05T00:24:31.284Z,15.95
2024-03-05T00:26:59.120Z,16.52
2024-03-05T00:29:28.292Z,17.83
2024-03-05T00:31:56.430Z,17.42
2024-03-05T00:34:24.859Z,17.15
2024-03-05T00:36:54.030Z,17.25
2024-03-05T00:39:23.745Z,18.73
2024-03-05T00:41:51.680Z,17.00
2024-03-05T00:44:24.287Z,18.08
2024-03-05T00:47:00.000Z,18.58
2024-03-05T00:49:30.144Z,17.75
2024-03-05T00:52:02.423Z,19.20
2024-03-05T00:54:32.153Z,17.83
2024-03-05T00:56:59.994Z,18.48
2024-03-05T00:59:28.347Z,18.15
2024-03-05T01:01:58.746Z,17.45
2024-03-05T01:04:27.182Z,18.50
2024-03-05T01:06:56.794Z,15.82
2024-03-05T01:09:26.156Z,16.15
2024-03-05T01:11:55.403Z,17.30
2024-03-05T01:14:23.784Z,17.02
2024-03-05T01:16:51.712Z,18.50
2024-03-05T01:19:19.659Z,18.35
2024-03-05T01:21:48.378Z,19.35
2024-03-05T01:24:17.832Z,17.52
2024-03-05T01:26:45.749Z,17.48
2024-03-05T01:29:18.324Z,17.80
2024-03-05T01:31:46.806Z,18.73
2024-03-05T01:34:14.444Z,18.38
2024-03-05T01:36:42.157Z,17.95
2024-03-05T01:39:10.726Z,18.23
2024-03-05T01:41:38.515Z,16.55
2024-03-05T01:44:06.261Z,17.00
2024-03-05T01:46:35.549Z,17.70
2024-03-05T01:49:06.001Z,17.42
2024-03-05T01:51:33.706Z,18.60
2024-03-05T01:54:04.624Z,17.60
2024-03-05T01:56:34.500Z,18.75
2024-03-05T01:59:03.285Z,16.85
2024-03-05T02:01:32.321Z,17.60
2024-03-05T02:04:02.344Z,17.02
2024-03-05T02:06:34.750Z,17.92
2024-03-05T02:09:05.344Z,17.65
2024-03-05T02:11:33.893Z,17.70
2024-03-05T02:14:04.748Z,14.52
2024-03-05T02:16:32.446Z,17.77
2024-03-05T02:19:02.095Z,16.17
2024-03-05T02:21:33.170Z,18.50
2024-03-05T02:24:00.793Z,18.02
2024-03-05T02:26:30.455Z,16.40
2024-03-05T02:28:58.659Z,17.55
2024-03-05T02:31:28.787Z,16.00
2024-03-05T02:33:56.882Z,16.83
2024-03-05T02:36:24.509Z,16.67
2024-03-05T02:38:53.501Z,18.23
2024-03-05T02:41:22.316Z,17.45
2024-03-05T02:43:50.062Z,17.80
2024-03-05T02:46:18.125Z,16.35
2024-03-05T02:48:45.945Z,17.60
2024-03-05T02:51:14.067Z,16.88
2024-03-05T02:53:41.834Z,15.52
2024-03-05T02:56:12.845Z,17.08
2024-03-05T02:58:40.684Z,17.83
2024-03-05T03:01:09.247Z,16.95
2024-03-05T03:03:37.292Z,15.65
2024-03-05T03:06:08.468Z,17.73
2024-03-05T03:08:37.646Z,17.15
2024-03-05T03:11:09.422Z,17.85
2024-03-05T03:13:40.898Z,16.35
2024-03-05T03:16:08.630Z,16.83
2024-03-05T03:18:36.240Z,19.52
2024-03-05T03:21:06.792Z,18.02
2024-03-05T03:23:35.684Z,18.35
2024-03-05T03:26:05.409Z,18.48
2024-03-05T03:28:33.214Z,16.85
2024-03-05T03:31:07.182Z,17.60
2024-03-05T03:33:35.068Z,17.20
2024-03-05T03:36:11.830Z,19.45
2024-03-05T03:38:40.099Z,19.42
2024-03-05T03:41:09.381Z,19.45
2024-03-05T03:43:38.480Z,19.83
2024-03-05T03:46:09.981Z,17.95
2024-03-05T03:48:39.471Z,18.35
2024-03-05T03:51:08.665Z,19.67
2024-03-05T03:53:37.901Z,18.20
2024-03-05T03:56:07.537Z,18.10
2024-03-05T03:58:35.494Z,18.02
2024-03-05T04:01:06.230Z,18.88
2024-03-05T04:03:35.387Z,18.17
2024-03-05T04:06:03.245Z,19.83
2024-03-05T04:08:31.066Z,19.42
2024-03-05T04:10:59.088Z,19.23
2024-03-05T04:13:28.867Z,19.70
2024-03-05T04:15:56.486Z,19.02
2024-03-05T04:18:24.065Z,18.90
2024-03-05T04:20:53.538Z,19.92
2024-03-05T04:23:21.576Z,19.05
2024-03-05T04:25:53.499Z,20.00
2024-03-05T04:28:23.492Z,18.17
2024-03-05T04:31:01.140Z,20.45
2024-03-05T04:33:29.661Z,19.48
2024-03-05T04:35:59.386Z,18.38
2024-03-05T04:38:27.354Z,16.92
2024-03-05T04:40:57.494Z,19.30
2024-03-05T04:43:26.775Z,17.73
2024-03-05T04:45:56.789Z,16.90
2024-03-05T04:48:27.089Z,18.63
2024-03-05T04:50:56.962Z,18.88
2024-03-05T04:53:27.504Z,17.05
2024-03-05T04:55:57.567Z,16.42
2024-03-05T04:58:25.529Z,18.48
2024-03-05T05:00:55.496Z,18.23
2024-03-05T05:03:23.601Z,18.85
2024-03-05T05:05:51.348Z,18.08
2024-03-05T05:08:20.337Z,19.08
2024-03-05T05:10:50.614Z,17.02
2024-03-05T05:13:23.686Z,18.33
2024-03-05T05:15:52.177Z,17.40
2024-03-05T05:18:21.507Z,19.77
2024-03-05T05:20:53.441Z,17.00
2024-03-05T05:23:21.167Z,17.85
2024-03-05T05:25:53.628Z,18.45
2024-03-05T05:28:22.345Z,18.05
2024-03-05T05:30:50.187Z,18.45
2024-03-05T05:33:18.489Z,16.60
2024-03-05T05:35:46.649Z,18.25
2024-03-05T05:38:19.817Z,18.88
2024-03-05T05:40:47.544Z,18.33
2024-03-05T05:43:16.543Z,17.73
2024-03-05T05:45:44.208Z,18.70
2024-03-05T05:48:28.816Z,19.20
2024-03-05T05:51:00.026Z,17.73
2024-03-05T05:53:27.808Z,18.85
2024-03-05T05:55:55.766Z,18.90
2024-03-05T05:58:27.597Z,18.25
2024-03-05T06:00:55.521Z,18.88
2024-03-05T06:03:24.042Z,18.67
2024-03-05T06:05:55.872Z,18.52
2024-03-05T06:08:23.681Z,20.38
2024-03-05T06:10:56.552Z,19.05
2024-03-05T06:13:26.216Z,19.67
2024-03-05T06:15:56.145Z,18.85
2024-03-05T06:18:24.864Z,18.75
2024-03-05T06:20:52.868Z,19.20
2024-03-05T06:23:20.922Z,16.40
2024-03-05T06:25:49.040Z,19.67
2024-03-05T06:28:18.917Z,19.50
2024-03-05T06:30:50.131Z,19.65
2024-03-05T06:33:19.429Z,19.92
2024-03-05T06:35:47.981Z,21.52
2024-03-05T06:38:20.214Z,19.73
2024-03-05T06:40:48.580Z,21.10
2024-03-05T06:43:23.541Z,19.48
2024-03-05T06:45:55.967Z,20.05
2024-03-05T06:48:25.365Z,20.60
2024-03-05T06:50:58.970Z,19.15
2024-03-05T06:53:44.372Z,18.10
2024-03-05T06:56:29.971Z,18.27
2024-03-05T06:58:59.607Z,17.15
2024-03-05T07:01:34.406Z,19.08
2024-03-05T07:04:02.882Z,19.17
2024-03-05T07:06:33.400Z,17.92
2024-03-05T07:09:01.922Z,19.42
2024-03-05T07:11:30.879Z,19.45
2024-03-05T07:13:59.210Z,19.40
2024-03-05T07:16:27.275Z,20.63
2024-03-05T07:18:56.595Z,19.92
2024-03-05T07:21:25.453Z,17.48
2024-03-05T07:23:55.371Z,18.55
2024-03-05T07:26:24.453Z,18.58
2024-03-05T07:28:52.437Z,20.08
2024-03-05T07:31:21.543Z,20.23
2024-03-05T07:33:53.317Z,18.92
2024-03-05T07:36:23.273Z,19.88
2024-03-05T07:38:52.945Z,19.25
2024-03-05T07:41:27.201Z,20.00
2024-03-05T07:44:02.191Z,19.13
2024-03-05T07:46:30.564Z,20.70
2024-03-05T07:48:58.402Z,19.38
2024-03-05T07:51:40.723Z,19.40
2024-03-05T07:54:12.359Z,20.13
2024-03-05T07:56:40.391Z,19.20
2024-03-05T07:59:08.469Z,18.10
2024-03-05T08:01:38.529Z,18.20
2024-03-05T08:04:09.266Z,19.70
2024-03-05T08:06:38.553Z,19.75
2024-03-05T08:09:06.489Z,19.52
2024-03-05T08:11:35.522Z,18.83
2024-03-05T08:14:05.388Z,18.73
2024-03-05T08:16:37.805Z,18.27
2024-03-05T08:19:06.072Z,18.23
2024-03-05T08:21:39.804Z,18.25
2024-03-05T08:24:10.623Z,19.02
2024-03-05T08:26:38.722Z,20.70
2024-03-05T08:29:07.242Z,18.80
2024-03-05T08:31:35.356Z,19.92
2024-03-05T08:34:10.788Z,18.05
2024-03-05T08:36:41.017Z,18.20
2024-03-05T08:39:19.349Z,18.95
2024-03-05T08:41:48.571Z,19.30
2024-03-05T08:44:19.316Z,18.48
2024-03-05T08:46:47.232Z,19.35
2024-03-05T08:49:14.832Z,18.52
2024-03-05T08:51:43.782Z,19.85
2024-03-05T08:54:13.715Z,19.77
2024-03-05T08:56:42.975Z,18.20
2024-03-05T08:59:10.714Z,19.08
2024-03-05T09:01:38.459Z,20.55
2024-03-05T09:04:08.415Z,18.90
2024-03-05T09:06:36.169Z,19.98
2024-03-05T09:09:06.305Z,19.52
2024-03-05T09:11:36.328Z,18.30
2024-03-05T09:14:04.538Z,19.17
2024-03-05T09:16:32.906Z,24.88
2024-03-05T09:19:00.888Z,24.75
2024-03-05T09:21:29.851Z,21.13
2024-03-05T09:23:57.699Z,20.40
2024-03-05T09:26:27.319Z,16.00
2024-03-05T09:28:55.859Z,12.80
2024-03-05T09:31:26.435Z,10.02
2024-03-05T09:33:54.486Z,7.65
2024-03-05T09:36:22.433Z,8.90
2024-03-05T09:38:54.163Z,7.72
2024-03-05T09:41:21.805Z,6.18
2024-03-05T09:43:58.316Z,6.40
2024-03-05T09:46:27.217Z,7.70
2024-03-05T09:48:57.262Z,7.03
2024-03-05T09:51:31.091Z,6.80
2024-03-05T09:53:58.636Z,6.80
2024-03-05T09:56:26.718Z,6.78
2024-03-05T09:58:55.754Z,7.03
2024-03-05T10:01:24.476Z,7.63
2024-03-05T10:03:52.880Z,8.05
2024-03-05T10:06:20.433Z,8.68
2024-03-05T10:08:51.231Z,8.07
2024-03-05T10:11:19.950Z,8.98
2024-03-05T10:13:47.652Z,8.45
2024-03-05T10:16:20.634Z,9.57
2024-03-05T10:18:48.874Z,9.70
2024-03-05T10:21:20.331Z,9.60
2024-03-05T10:23:49.631Z,8.93
2024-03-05T10:26:21.010Z,10.50
2024-03-05T10:28:52.515Z,8.10
2024-03-05T10:31:25.742Z,8.82
2024-03-05T10:33:55.530Z,8.35
2024-03-05T10:36:26.936Z,10.88
2024-03-05T10:38:55.199Z,10.45
2024-03-05T10:41:31.885Z,10.88
2024-03-05T10:44:07.973Z,9.15
2024-03-05T10:46:38.435Z,10.95
2024-03-05T10:49:08.573Z,9.55
2024-03-05T10:51:38.827Z,7.80
2024-03-05T10:54:07.525Z,10.50
2024-03-05T10:56:44.257Z,8.07
2024-03-05T10:59:26.889Z,8.55
2024-03-05T11:01:57.153Z,8.27
2024-03-05T11:04:25.538Z,8.88
2024-03-05T11:06:56.683Z,9.20
2024-03-05T11:09:29.150Z,7.93
2024-03-05T11:12:01.546Z,8.55
2024-03-05T11:14:30.045Z,8.90
2024-03-05T11:16:59.903Z,8.07
2024-03-05T11:19:29.370Z,8.30
2024-03-05T11:22:00.278Z,8.02
2024-03-05T11:24:31.236Z,8.18
2024-03-05T11:27:14.389Z,7.55
2024-03-05T11:29:45.763Z,7.88
2024-03-05T11:32:15.784Z,7.45
2024-03-05T11:34:56.091Z,8.88
2024-03-05T11:37:29.929Z,7.78
2024-03-05T11:40:13.639Z,8.10
2024-03-05T11:42:58.291Z,7.20
2024-03-05T11:45:47.631Z,7.60
2024-03-05T11:48:34.771Z,6.97
2024-03-05T11:51:05.905Z,7.65
2024-03-05T11:53:42.049Z,7.10
2024-03-05T11:56:14.126Z,7.35
2024-03-05T11:58:42.159Z,7.25
2024-03-05T12:01:11.322Z,6.68
2024-03-05T12:03:43.094Z,7.25
2024-03-05T12:06:13.697Z,7.15
2024-03-05T12:08:41.288Z,6.65
2024-03-05T12:11:09.820Z,5.57
2024-03-05T12:13:37.709Z,6.35
2024-03-05T12:16:12.676Z,6.20
2024-03-05T12:18:42.903Z,6.78
2024-03-05T12:21:11.705Z,6.68
2024-03-05T12:23:42.599Z,7.32
2024-03-05T12:26:11.285Z,6.68
2024-03-05T12:28:38.921Z,6.05
2024-03-05T12:31:07.311Z,6.50
2024-03-05T12:33:34.893Z,5.80
2024-03-05T12:36:04.951Z,6.60
2024-03-05T12:38:33.737Z,6.50
2024-03-05T12:41:02.901Z,6.47
2024-03-05T12:43:30.969Z,6.32
2024-03-05T12:46:05.104Z,5.97
2024-03-05T12:48:33.695Z,5.97
2024-03-05T12:51:01.456Z,4.90
2024-03-05T12:53:30.786Z,5.20
2024-03-05T12:56:05.079Z,5.60
2024-03-05T12:58:40.657Z,5.22
2024-03-05T13:01:16.680Z,5.38
2024-03-05T13:03:44.961Z,4.65
2024-03-05T13:06:13.023Z,5.10
2024-03-05T13:08:42.195Z,4.70
2024-03-05T13:11:09.983Z,4.78
2024-03-05T13:13:37.592Z,5.00
2024-03-05T13:16:09.421Z,4.90
2024-03-05T13:18:37.097Z,5.38
2024-03-05T13:21:07.146Z,5.20
2024-03-05T13:23:39.466Z,4.53
2024-03-05T13:26:11.815Z,5.32
2024-03-05T13:28:39.485Z,5.90
2024-03-05T13:31:07.651Z,5.10
2024-03-05T13:33:35.553Z,5.53
2024-03-05T13:36:03.368Z,4.55
2024-03-05T13:38:32.022Z,4.50
2024-03-05T13:41:08.113Z,4.75
2024-03-05T13:43:37.618Z,4.60
2024-03-05T13:46:05.659Z,4.22
2024-03-05T13:48:33.884Z,3.97
2024-03-05T13:51:03.906Z,4.38
2024-03-05T13:53:32.039Z,3.80
2024-03-05T13:55:59.919Z,4.28
2024-03-05T13:58:27.697Z,3.45
2024-03-05T14:00:58.486Z,3.15
2024-03-05T14:03:26.932Z,2.70
2024-03-05T14:05:54.641Z,2.42
2024-03-05T14:08:22.237Z,2.60
2024-03-05T14:10:51.381Z,2.75
2024-03-05T14:13:23.518Z,2.35
2024-03-05T14:15:53.220Z,2.80
2024-03-05T14:18:23.444Z,2.00
2024-03-05T14:20:53.716Z,2.70
2024-03-05T14:23:25.314Z,2.42
2024-03-05T14:25:58.464Z,2.35
2024-03-05T14:28:28.309Z,2.05
2024-03-05T14:30:57.100Z,1.90
2024-03-05T14:33:29.064Z,1.75
2024-03-05T14:35:57.508Z,2.35
2024-03-05T14:38:25.989Z,2.55
2024-03-05T14:40:56.193Z,2.20
2024-03-05T14:43:28.610Z,2.08
2024-03-05T14:45:56.350Z,2.03
2024-03-05T14:48:26.811Z,2.28
2024-03-05T14:50:56.731Z,2.20
2024-03-05T14:53:24.826Z,2.20
2024-03-05T14:55:52.677Z,2.30
2024-03-05T14:58:20.292Z,2.10
2024-03-05T15:00:52.497Z,1.98
2024-03-05T15:03:20.228Z,2.05
2024-03-05T15:05:52.964Z,1.92
2024-03-05T15:08:23.450Z,1.88
2024-03-05T15:10:51.319Z,2.08
2024-03-05T15:13:20.438Z,1.90
2024-03-05T15:15:49.960Z,1.90
2024-03-05T15:18:18.545Z,2.00
2024-03-05T15:20:47.419Z,2.08
2024-03-05T15:23:16.819Z,2.30
2024-03-05T15:25:46.986Z,2.00
2024-03-05T15:28:16.803Z,2.03
2024-03-05T15:30:45.558Z,2.28
2024-03-05T15:33:13.615Z,1.90
2024-03-05T15:35:41.495Z,2.40
2024-03-05T15:38:14.511Z,1.70
2024-03-05T15:40:51.866Z,1.95
2024-03-05T15:43:25.079Z,2.08
2024-03-05T15:45:53.977Z,2.35
2024-03-05T15:48:24.779Z,2.75
2024-03-05T15:50:54.769Z,2.28
2024-03-05T15:53:24.394Z,1.98
2024-03-05T15:56:02.612Z,2.00
2024-03-05T15:58:47.959Z,2.20
2024-03-05T16:01:17.772Z,2.10
2024-03-05T16:06:19.473Z,2.08
2024-03-05T16:08:49.656Z,2.30
2024-03-05T16:11:20.692Z,2.22
2024-03-05T16:14:00.703Z,2.72
2024-03-05T16:16:28.613Z,2.90
2024-03-05T16:19:03.515Z,2.05
2024-03-05T16:21:33.891Z,2.38
2024-03-05T16:24:01.494Z,2.38
2024-03-05T16:26:37.030Z,2.60
2024-03-05T16:29:07.259Z,2.38
2024-03-05T16:31:45.386Z,2.85
2024-03-05T16:34:34.238Z,3.28
2024-03-05T16:37:04.083Z,2.92
2024-03-05T16:39:33.429Z,2.10
2024-03-05T16:42:18.063Z,2.60
2024-03-05T16:44:46.030Z,2.60
2024-03-05T16:47:20.548Z,2.30
2024-03-05T16:50:28.154Z,2.17
2024-03-05T16:53:19.711Z,2.50
2024-03-05T16:55:51.839Z,2.25
2024-03-05T16:58:25.737Z,2.30
2024-03-05T17:00:58.307Z,2.03
2024-03-05T17:03:32.209Z,2.28
2024-03-05T17:06:10.391Z,2.58
2024-03-05T17:08:46.806Z,2.78
2024-03-05T17:11:16.969Z,2.20
2024-03-05T17:13:49.673Z,2.28
2024-03-05T17:16:22.591Z,2.58
2024-03-05T17:18:52.842Z,2.33
2024-03-05T17:21:27.679Z,2.75
2024-03-05T17:23:55.716Z,2.75
2024-03-05T17:26:23.535Z,2.53
2024-03-05T17:28:53.607Z,7.00
2024-03-05T17:31:21.302Z,4.50
2024-03-05T17:33:49.163Z,5.57
2024-03-05T17:36:17.082Z,3.53
2024-03-05T17:38:44.878Z,2.63
2024-03-05T17:41:14.187Z,2.42
2024-03-05T17:43:44.735Z,2.55
2024-03-05T17:46:13.837Z,2.50
2024-03-05T17:48:41.550Z,2.97
2024-03-05T17:51:11.300Z,2.47
2024-03-05T17:53:39.593Z,2.42
2024-03-05T17:56:10.836Z,2.50
2024-03-05T17:58:38.989Z,2.40
2024-03-05T18:01:13.074Z,4.10
2024-03-05T18:03:44.729Z,4.55
2024-03-05T18:06:17.772Z,5.00
2024-03-05T18:08:47.513Z,4.30
2024-03-05T18:11:19.232Z,4.82
2024-03-05T18:13:47.098Z,6.95
2024-03-05T18:16:14.842Z,5.45
2024-03-05T18:18:46.702Z,3.90
2024-03-05T18:21:16.097Z,4.13
2024-03-05T18:23:43.717Z,4.28
2024-03-05T18:26:13.157Z,4.25
2024-03-05T18:28:42.546Z,4.70
2024-03-05T18:31:10.411Z,5.05
2024-03-05T18:33:38.633Z,5.40
2024-03-05T18:36:11.263Z,4.80
2024-03-05T18:38:40.098Z,4.50
2024-03-05T18:41:10.520Z,5.55
2024-03-05T18:43:42.102Z,6.45
2024-03-05T18:46:10.726Z,5.97
2024-03-05T18:48:40.598Z,6.22
2024-03-05T18:51:11.063Z,5.53
2024-03-05T18:53:43.665Z,5.68
2024-03-05T18:56:19.267Z,4.43
2024-03-05T18:58:51.017Z,5.13
2024-03-05T19:01:19.488Z,4.93
2024-03-05T19:03:49.249Z,4.43
2024-03-05T19:06:25.717Z,4.25
2024-03-05T19:08:53.627Z,5.15
2024-03-05T19:11:21.853Z,4.78
2024-03-05T19:13:52.226Z,4.38
2024-03-05T19:16:21.466Z,4.70
2024-03-05T19:18:54.046Z,5.20
2024-03-05T19:21:31.093Z,5.00
2024-03-05T19:23:58.914Z,4.80
2024-03-05T19:26:27.047Z,4.35
2024-03-05T19:28:54.839Z,4.72
2024-03-05T19:31:22.824Z,4.40
2024-03-05T19:33:52.279Z,4.72
2024-03-05T19:36:21.382Z,6.28
2024-03-05T19:38:55.798Z,7.10
2024-03-05T19:41:23.917Z,5.72
2024-03-05T19:43:52.887Z,4.75
2024-03-05T19:46:21.019Z,4.63
2024-03-05T19:48:56.347Z,4.53
2024-03-05T19:51:24.770Z,5.13
2024-03-05T19:53:53.842Z,4.90
2024-03-05T19:56:25.208Z,6.95
2024-03-05T19:58:53.056Z,4.82
2024-03-05T20:01:21.706Z,5.20
2024-03-05T20:03:50.123Z,6.15
2024-03-05T20:06:19.466Z,5.22
2024-03-05T20:08:48.135Z,5.32
2024-03-05T20:11:19.412Z,4.82
2024-03-05T20:13:47.458Z,4.25
2024-03-05T20:16:15.810Z,4.93
2024-03-05T20:18:44.232Z,3.97
2024-03-05T20:21:11.871Z,4.93
2024-03-05T20:23:39.864Z,4.63
2024-03-05T20:26:11.162Z,5.20
2024-03-05T20:28:42.203Z,6.13
2024-03-05T20:31:12.788Z,7.63
2024-03-05T20:33:41.985Z,6.60
2024-03-05T20:36:10.822Z,6.60
2024-03-05T20:38:42.233Z,5.63
2024-03-05T20:41:10.086Z,4.72
2024-03-05T20:43:37.947Z,5.15
2024-03-05T20:46:07.206Z,5.05
2024-03-05T20:48:35.371Z,5.55
2024-03-05T20:51:04.057Z,5.72
2024-03-05T20:53:31.745Z,4.95
2024-03-05T20:56:01.256Z,4.82
2024-03-05T20:58:28.974Z,4.35
2024-03-05T21:00:56.947Z,5.18
2024-03-05T21:03:26.175Z,4.57
2024-03-05T21:05:53.980Z,4.97
2024-03-05T21:08:25.330Z,4.90
2024-03-05T21:10:54.383Z,5.03
2024-03-05T21:13:32.326Z,5.03
2024-03-05T21:16:05.369Z,5.13
2024-03-05T21:18:41.243Z,4.82
2024-03-05T21:21:14.802Z,5.65
2024-03-05T21:23:43.111Z,4.55
2024-03-05T21:26:23.179Z,4.85
2024-03-05T21:28:59.091Z,4.95
2024-03-05T21:31:29.821Z,4.47
2024-03-05T21:33:59.628Z,4.25
2024-03-05T21:36:27.542Z,4.32
2024-03-05T21:38:55.828Z,4.53
2024-03-05T21:41:25.463Z,4.38
2024-03-05T21:43:52.965Z,4.60
2024-03-05T21:46:21.357Z,5.10
2024-03-05T21:48:49.475Z,5.60
2024-03-05T21:51:22.252Z,6.40
2024-03-05T21:53:49.863Z,5.63
2024-03-05T21:56:17.851Z,3.78
2024-03-05T21:58:46.091Z,4.60
2024-03-05T22:01:13.957Z,4.70
2024-03-05T22:03:41.732Z,4.38
2024-03-05T22:06:15.497Z,4.03
2024-03-05T22:08:50.728Z,4.93
2024-03-05T22:11:18.734Z,4.63
2024-03-05T22:13:51.098Z,4.95
2024-03-05T22:16:20.196Z,4.45
2024-03-05T22:18:49.219Z,5.38
2024-03-05T22:21:19.659Z,5.05
2024-03-05T22:23:48.667Z,4.70
2024-03-05T22:26:17.494Z,5.10
2024-03-05T22:28:45.155Z,5.32
2024-03-05T22:31:12.921Z,5.35
2024-03-05T22:33:40.467Z,5.35
2024-03-05T22:36:08.249Z,5.40
2024-03-05T22:38:35.828Z,5.22
2024-03-05T22:41:05.086Z,6.60
2024-03-05T22:43:32.889Z,5.63
2024-03-05T22:46:00.396Z,5.70
2024-03-05T22:48:29.488Z,6.90
2024-03-05T22:50:58.075Z,5.75
2024-03-05T22:53:25.821Z,5.88
2024-03-05T22:55:53.508Z,6.38
2024-03-05T22:58:22.724Z,5.70
2024-03-05T23:00:51.906Z,6.30
2024-03-05T23:03:20.670Z,6.00
2024-03-05T23:05:48.382Z,5.00
2024-03-05T23:08:16.181Z,6.72
2024-03-05T23:10:44.643Z,5.95
2024-03-05T23:13:12.395Z,5.72
2024-03-05T23:15:41.463Z,5.80
2024-03-05T23:18:09.699Z,6.07
2024-03-05T23:20:39.257Z,5.70
2024-03-05T23:23:06.916Z,7.00
2024-03-05T23:25:35.446Z,7.60
2024-03-05T23:28:03.770Z,6.20
2024-03-05T23:30:31.531Z,5.72
2024-03-05T23:33:00.522Z,5.72
2024-03-05T23:35:28.711Z,5.20
2024-03-05T23:37:56.378Z,5.88
2024-03-05T23:40:24.685Z,6.72
2024-03-05T23:42:53.128Z,6.55
2024-03-05T23:45:20.951Z,7.57
2024-03-05T23:47:48.489Z,7.57
2024-03-05T23:50:21.379Z,7.80
2024-03-05T23:52:48.942Z,8.23
2024-03-05T23:55:19.623Z,8.80
2024-03-05T23:57:47.745Z,8.35
